createdAt,value
2017-11-20T00:01:05.665Z,76.11
2017-11-20T00:03:34.114Z,76.35
2017-11-20T00:06:02.523Z,76.29
2017-11-20T00:08:31.124Z,75.97
2017-11-20T00:10:59.515Z,76.10
2017-11-20T00:13:27.948Z,75.93
2017-11-20T00:15:57.176Z,75.87
2017-11-20T00:18:25.578Z,75.01
2017-11-20T00:20:54.063Z,75.28
2017-11-20T00:23:23.363Z,75.16
2017-11-20T00:25:51.740Z,74.65
2017-11-20T00:28:20.162Z,75.25
2017-11-20T00:30:50.251Z,75.37
2017-11-20T00:33:19.509Z,75.42
2017-11-20T00:35:47.915Z,75.03
2017-11-20T00:38:16.301Z,74.89
2017-11-20T00:40:44.690Z,75.06
2017-11-20T00:43:13.193Z,73.79
2017-11-20T00:45:42.383Z,73.69
2017-11-20T00:48:10.774Z,73.87
2017-11-20T00:50:39.184Z,73.97
2017-11-20T00:53:07.574Z,73.50
2017-11-20T00:55:36.038Z,73.61
2017-11-20T00:58:04.464Z,73.40
2017-11-20T01:00:32.885Z,73.88
2017-11-20T01:03:01.979Z,73.43
2017-11-20T01:05:30.490Z,73.46
2017-11-20T01:08:00.152Z,73.71
2017-11-20T01:10:28.814Z,73.67
2017-11-20T01:12:57.221Z,72.96
2017-11-20T01:15:25.596Z,73.66
2017-11-20T01:17:53.977Z,73.95
2017-11-20T01:20:22.400Z,73.17
2017-11-20T01:22:50.774Z,73.33
2017-11-20T01:25:19.142Z,73.02
2017-11-20T01:27:47.645Z,73.33
2017-11-20T01:30:16.045Z,74.37
2017-11-20T01:32:44.423Z,75.25
2017-11-20T01:35:13.735Z,75.54
2017-11-20T01:37:42.110Z,76.17
2017-11-20T01:40:10.481Z,76.33
2017-11-20T01:42:38.898Z,77.11
2017-11-20T01:45:07.971Z,77.41
2017-11-20T01:47:36.359Z,77.48
2017-11-20T01:50:04.915Z,77.06
2017-11-20T01:52:33.293Z,76.83
2017-11-20T01:55:01.692Z,77.00
2017-11-20T01:57:30.091Z,76.36
2017-11-20T01:59:58.469Z,76.63
2017-11-20T02:02:26.885Z,76.30
2017-11-20T02:04:56.064Z,76.02
2017-11-20T02:07:24.479Z,75.60
2017-11-20T02:09:52.849Z,75.71
2017-11-20T02:12:21.489Z,75.12
2017-11-20T02:14:49.889Z,74.84
2017-11-20T02:17:19.063Z,74.45
2017-11-20T02:19:47.501Z,74.56
2017-11-20T02:22:15.941Z,74.21
2017-11-20T02:24:44.333Z,73.70
2017-11-20T02:27:12.746Z,73.66
2017-11-20T02:29:41.196Z,73.48
2017-11-20T02:32:09.584Z,73.49
2017-11-20T02:34:38.225Z,74.18
2017-11-20T02:37:07.399Z,73.85
2017-11-20T02:39:35.992Z,74.31
2017-11-20T02:42:04.412Z,74.18
2017-11-20T02:44:33.510Z,74.22
2017-11-20T02:47:02.408Z,73.68
2017-11-20T02:49:30.825Z,73.68
2017-11-20T02:51:59.787Z,73.44
2017-11-20T02:54:28.939Z,73.90
2017-11-20T02:56:58.362Z,74.39
2017-11-20T02:59:26.741Z,74.71
2017-11-20T03:01:55.154Z,75.26
2017-11-20T03:04:24.338Z,76.12
2017-11-20T03:06:52.719Z,76.39
2017-11-20T03:09:21.859Z,75.68
2017-11-20T03:11:50.528Z,76.09
2017-11-20T03:14:18.924Z,76.15
2017-11-20T03:16:47.904Z,76.99
2017-11-20T03:19:17.305Z,77.35
2017-11-20T03:21:45.676Z,77.06
2017-11-20T03:24:14.081Z,77.28
2017-11-20T03:26:42.532Z,77.58
2017-11-20T03:29:11.685Z,77.51
2017-11-20T03:31:40.073Z,77.32
2017-11-20T03:34:08.481Z,77.72
2017-11-20T03:36:37.650Z,77.46
2017-11-20T03:39:06.018Z,77.63
2017-11-20T03:41:34.603Z,77.66
2017-11-20T03:44:02.981Z,78.39
2017-11-20T03:46:31.385Z,77.85
2017-11-20T03:48:59.806Z,77.38
2017-11-20T03:51:28.188Z,77.93
2017-11-20T03:53:56.591Z,77.58
2017-11-20T03:56:26.021Z,78.11
2017-11-20T03:58:55.401Z,78.06
2017-11-20T04:01:23.785Z,77.69
2017-11-20T04:03:52.459Z,77.38
2017-11-20T04:06:20.838Z,78.00
2017-11-20T04:08:50.013Z,78.13
2017-11-20T04:11:18.448Z,77.96
2017-11-20T04:13:46.846Z,77.33
2017-11-20T04:16:16.033Z,76.89
2017-11-20T04:18:44.452Z,76.77
2017-11-20T04:21:12.836Z,76.61
2017-11-20T04:23:41.977Z,76.52
2017-11-20T04:26:10.561Z,76.95
2017-11-20T04:28:38.940Z,76.64
2017-11-20T04:31:07.318Z,76.71
2017-11-20T04:33:35.733Z,77.27
2017-11-20T04:36:04.866Z,77.50
2017-11-20T04:38:33.279Z,77.21
2017-11-20T04:41:02.371Z,77.15
2017-11-20T04:43:30.754Z,77.44
2017-11-20T04:45:59.118Z,77.12
2017-11-20T04:48:27.682Z,76.48
2017-11-20T04:50:56.057Z,76.66
2017-11-20T04:53:24.435Z,76.98
2017-11-20T04:55:52.852Z,76.68
2017-11-20T04:58:21.230Z,76.04
2017-11-20T05:00:49.605Z,75.75
2017-11-20T05:03:18.031Z,76.15
2017-11-20T05:05:46.411Z,77.08
2017-11-20T05:08:15.558Z,76.91
2017-11-20T05:10:44.027Z,76.73
2017-11-20T05:13:12.416Z,77.01
2017-11-20T05:15:41.486Z,77.09
2017-11-20T05:18:10.273Z,77.62
2017-11-20T05:20:38.653Z,77.67
2017-11-20T05:23:07.266Z,77.82
2017-11-20T05:25:35.677Z,77.80
2017-11-20T05:28:04.060Z,77.91
2017-11-20T05:30:32.445Z,77.68
2017-11-20T05:33:01.718Z,77.91
2017-11-20T05:35:30.097Z,77.39
2017-11-20T05:37:58.482Z,77.77
2017-11-20T05:40:26.884Z,77.73
2017-11-20T05:42:55.321Z,77.60
2017-11-20T05:45:23.910Z,77.98
2017-11-20T05:47:52.324Z,77.53
2017-11-20T05:50:21.160Z,77.31
2017-11-20T05:52:50.925Z,77.06
2017-11-20T05:55:19.563Z,77.01
2017-11-20T05:57:47.927Z,76.78
2017-11-20T06:00:16.319Z,76.11
2017-11-20T06:02:44.724Z,77.00
2017-11-20T06:05:13.902Z,77.50
2017-11-20T06:07:42.309Z,77.22
2017-11-20T06:10:10.706Z,77.35
2017-11-20T06:12:39.884Z,77.46
2017-11-20T06:15:08.401Z,77.77
2017-11-20T06:17:38.411Z,77.36
2017-11-20T06:20:06.788Z,77.71
2017-11-20T06:22:35.168Z,77.37
2017-11-20T06:25:03.593Z,78.10
2017-11-20T06:27:31.998Z,78.19
2017-11-20T06:30:00.380Z,79.19
2017-11-20T06:32:28.785Z,78.83
2017-11-20T06:34:58.637Z,78.75
2017-11-20T06:37:27.913Z,79.12
2017-11-20T06:39:58.293Z,79.67
2017-11-20T06:42:26.669Z,79.23
2017-11-20T06:44:55.048Z,78.78
2017-11-20T06:47:23.471Z,78.77
2017-11-20T06:49:51.871Z,79.27
2017-11-20T06:52:20.288Z,79.00
2017-11-20T06:54:48.699Z,79.80
2017-11-20T06:57:17.073Z,79.35
2017-11-20T06:59:45.441Z,78.96
2017-11-20T07:02:14.153Z,78.93
2017-11-20T07:04:42.532Z,78.63
2017-11-20T07:07:10.909Z,78.17
2017-11-20T07:09:40.128Z,78.06
2017-11-20T07:12:09.267Z,78.01
2017-11-20T07:14:37.673Z,78.60
2017-11-20T07:17:06.082Z,78.72
2017-11-20T07:19:35.473Z,78.49
2017-11-20T07:22:03.849Z,78.35
2017-11-20T07:24:32.380Z,78.98
2017-11-20T07:27:03.550Z,78.57
2017-11-20T07:29:49.537Z,78.58
2017-11-20T07:32:18.692Z,78.56
2017-11-20T07:35:16.276Z,78.25
2017-11-20T07:38:02.214Z,78.65
2017-11-20T07:40:48.381Z,78.17
2017-11-20T07:43:17.075Z,77.63
2017-11-20T07:45:45.453Z,76.91
2017-11-20T07:48:13.876Z,76.69
2017-11-20T07:50:43.034Z,76.40
2017-11-20T07:53:11.425Z,75.76
2017-11-20T07:55:39.851Z,75.95
2017-11-20T07:58:08.989Z,76.46
2017-11-20T08:00:37.381Z,76.44
2017-11-20T08:03:06.050Z,76.72
2017-11-20T08:05:34.428Z,76.35
2017-11-20T08:08:03.626Z,76.50
2017-11-20T08:10:32.023Z,77.52
2017-11-20T08:13:00.633Z,77.50
2017-11-20T08:15:29.805Z,77.59
2017-11-20T08:17:58.303Z,77.07
2017-11-20T08:20:26.716Z,78.48
2017-11-20T08:22:55.103Z,78.59
2017-11-20T08:25:23.735Z,79.05
2017-11-20T08:27:52.105Z,78.88
2017-11-20T08:30:20.481Z,78.46
2017-11-20T08:32:48.916Z,78.88
2017-11-20T08:35:17.296Z,79.37
2017-11-20T08:37:45.690Z,79.55
2017-11-20T08:40:14.109Z,79.27
2017-11-20T08:42:43.995Z,78.65
2017-11-20T08:45:12.373Z,78.78
2017-11-20T08:47:40.956Z,78.43
2017-11-20T08:50:09.363Z,77.44
2017-11-20T08:52:37.740Z,77.50
2017-11-20T08:55:06.194Z,77.81
2017-11-20T08:57:34.810Z,76.81
2017-11-20T09:00:03.242Z,76.62
2017-11-20T09:02:31.718Z,76.78
2017-11-20T09:05:00.095Z,76.56
2017-11-20T09:07:29.253Z,75.83
2017-11-20T09:09:57.728Z,76.03
2017-11-20T09:12:26.113Z,76.36
2017-11-20T09:14:54.487Z,76.63
2017-11-20T09:17:23.705Z,76.86
2017-11-20T09:19:52.084Z,76.64
2017-11-20T09:22:20.483Z,77.65
2017-11-20T09:24:48.921Z,77.18
2017-11-20T09:27:17.745Z,76.51
2017-11-20T09:29:46.138Z,76.47
2017-11-20T09:32:15.389Z,76.28
2017-11-20T09:34:43.783Z,76.84
2017-11-20T09:37:12.192Z,76.86
2017-11-20T09:39:40.627Z,76.73
2017-11-20T09:42:09.033Z,76.48
2017-11-20T09:44:37.419Z,76.28
2017-11-20T09:47:05.840Z,77.68
2017-11-20T09:49:34.217Z,76.75
2017-11-20T09:52:02.622Z,76.32
2017-11-20T09:54:31.743Z,75.15
2017-11-20T09:57:00.139Z,75.42
2017-11-20T09:59:28.511Z,74.37
2017-11-20T10:01:57.469Z,74.74
2017-11-20T10:04:25.836Z,74.62
2017-11-20T10:06:54.220Z,76.34
2017-11-20T10:09:22.778Z,76.77
2017-11-20T10:11:51.932Z,76.15
2017-11-20T10:14:21.151Z,76.29
2017-11-20T10:16:49.657Z,76.34
2017-11-20T10:19:18.769Z,75.64
2017-11-20T10:21:47.968Z,75.00
2017-11-20T10:24:16.390Z,75.74
2017-11-20T10:26:44.774Z,75.71
2017-11-20T10:29:13.164Z,77.25
2017-11-20T10:31:42.184Z,76.52
2017-11-20T10:34:10.589Z,76.30
2017-11-20T10:36:38.989Z,74.79
2017-11-20T10:39:07.437Z,74.41
2017-11-20T10:41:35.823Z,74.90
2017-11-20T10:44:04.239Z,75.06
2017-11-20T10:46:32.660Z,75.06
2017-11-20T10:49:02.393Z,74.81
2017-11-20T10:51:30.783Z,74.34
2017-11-20T10:53:59.192Z,73.64
2017-11-20T10:56:27.590Z,74.45
2017-11-20T10:58:56.744Z,75.11
2017-11-20T11:01:25.534Z,75.37
2017-11-20T11:03:53.905Z,75.32
2017-11-20T11:06:22.624Z,75.35
2017-11-20T11:08:51.950Z,76.54
2017-11-20T11:11:20.328Z,76.00
2017-11-20T11:13:49.920Z,75.86
2017-11-20T11:16:19.255Z,76.24
2017-11-20T11:18:47.677Z,75.65
2017-11-20T11:21:16.477Z,75.20
2017-11-20T11:23:45.256Z,75.33
2017-11-20T11:26:13.994Z,75.18
2017-11-20T11:28:42.382Z,75.42
2017-11-20T11:31:11.557Z,75.25
2017-11-20T11:33:39.943Z,75.37
2017-11-20T11:36:08.322Z,74.66
2017-11-20T11:38:36.742Z,74.14
2017-11-20T11:41:05.248Z,74.21
2017-11-20T11:43:33.627Z,73.50
2017-11-20T11:46:02.158Z,73.71
2017-11-20T11:48:31.319Z,73.81
2017-11-20T11:51:00.449Z,74.80
2017-11-20T11:53:29.676Z,73.59
2017-11-20T11:55:58.771Z,73.04
2017-11-20T11:58:27.173Z,72.55
2017-11-20T12:00:55.585Z,72.27
2017-11-20T12:03:24.741Z,71.60
2017-11-20T12:05:53.473Z,72.05
2017-11-20T12:08:22.089Z,72.74
2017-11-20T12:10:50.720Z,73.32
2017-11-20T12:13:19.088Z,73.76
2017-11-20T12:15:48.321Z,73.47
2017-11-20T12:18:16.704Z,73.90
2017-11-20T12:20:45.874Z,73.66
2017-11-20T12:23:14.497Z,74.14
2017-11-20T12:25:43.713Z,74.05
2017-11-20T12:28:12.891Z,74.49
2017-11-20T12:30:42.132Z,73.01
2017-11-20T12:33:10.513Z,74.43
2017-11-20T12:35:38.896Z,74.26
2017-11-20T12:38:08.031Z,74.29
2017-11-20T12:40:37.200Z,73.85
2017-11-20T12:43:06.117Z,73.14
2017-11-20T12:45:34.550Z,73.53
2017-11-20T12:48:02.922Z,74.09
2017-11-20T12:50:31.971Z,74.54
2017-11-20T12:53:00.540Z,74.81
2017-11-20T12:55:28.935Z,74.21
2017-11-20T12:57:58.132Z,73.43
2017-11-20T13:00:26.552Z,72.97
2017-11-20T13:02:54.927Z,72.72
2017-11-20T13:05:24.061Z,72.76
2017-11-20T13:07:52.489Z,72.25
2017-11-20T13:10:20.843Z,73.09
2017-11-20T13:12:49.213Z,73.27
2017-11-20T13:15:17.689Z,74.13
2017-11-20T13:17:46.314Z,74.43
2017-11-20T13:20:15.163Z,74.39
2017-11-20T13:22:43.596Z,74.28
2017-11-20T13:25:12.744Z,74.49
2017-11-20T13:27:41.113Z,75.53
2017-11-20T13:30:09.537Z,75.05
2017-11-20T13:32:38.727Z,75.53
2017-11-20T13:35:07.132Z,76.00
2017-11-20T13:37:35.888Z,75.69
2017-11-20T13:40:04.279Z,74.24
2017-11-20T13:42:32.652Z,74.05
2017-11-20T13:45:01.087Z,73.80
2017-11-20T13:47:29.512Z,73.23
2017-11-20T13:49:57.904Z,73.12
2017-11-20T13:52:27.089Z,73.29
2017-11-20T13:54:55.541Z,73.80
2017-11-20T13:57:24.734Z,74.50
2017-11-20T13:59:53.231Z,74.64
2017-11-20T14:02:21.637Z,74.60
2017-11-20T14:04:51.033Z,74.87
2017-11-20T14:07:19.671Z,75.24
2017-11-20T14:09:48.848Z,74.99
2017-11-20T14:12:18.406Z,75.64
2017-11-20T14:14:46.830Z,75.74
2017-11-20T14:17:16.029Z,75.14
2017-11-20T14:19:44.445Z,75.33
2017-11-20T14:22:13.249Z,76.49
2017-11-20T14:24:41.625Z,76.12
2017-11-20T14:27:10.014Z,75.95
2017-11-20T14:29:38.748Z,76.47
2017-11-20T14:32:07.136Z,76.71
2017-11-20T14:34:35.540Z,76.59
2017-11-20T14:37:03.946Z,77.29
2017-11-20T14:39:33.099Z,78.07
2017-11-20T14:42:01.482Z,77.76
2017-11-20T14:44:30.177Z,77.46
2017-11-20T14:47:02.690Z,78.29
2017-11-20T14:49:31.676Z,77.48
2017-11-20T14:52:05.143Z,76.82
2017-11-20T14:54:34.261Z,76.53
2017-11-20T14:57:02.666Z,76.62
2017-11-20T14:59:31.049Z,76.26
2017-11-20T15:02:01.150Z,76.17
2017-11-20T15:04:29.524Z,76.53
2017-11-20T15:06:57.902Z,76.53
2017-11-20T15:09:26.365Z,76.72
2017-11-20T15:11:54.742Z,76.41
2017-11-20T15:14:23.159Z,76.50
2017-11-20T15:16:51.587Z,76.59
2017-11-20T15:19:20.021Z,76.25
2017-11-20T15:21:48.426Z,76.81
2017-11-20T15:24:19.057Z,76.91
2017-11-20T15:26:48.976Z,77.35
2017-11-20T15:29:19.074Z,78.29
2017-11-20T15:31:47.472Z,77.52
2017-11-20T15:34:15.869Z,76.79
2017-11-20T15:36:44.303Z,75.87
2017-11-20T15:39:12.707Z,75.99
2017-11-20T15:41:41.109Z,77.57
2017-11-20T15:44:09.753Z,77.16
2017-11-20T15:46:38.900Z,76.09
2017-11-20T15:49:07.306Z,76.93
2017-11-20T15:51:35.750Z,78.02
2017-11-20T15:54:04.145Z,79.13
2017-11-20T15:56:32.538Z,78.89
2017-11-20T15:59:01.871Z,78.19
2017-11-20T16:01:30.350Z,77.91
2017-11-20T16:03:58.767Z,78.65
2017-11-20T16:06:28.025Z,80.03
2017-11-20T16:08:56.409Z,79.21
2017-11-20T16:11:25.473Z,78.97
2017-11-20T16:13:53.943Z,78.11
2017-11-20T16:16:22.334Z,77.61
2017-11-20T16:18:50.761Z,77.86
2017-11-20T16:21:19.457Z,78.39
2017-11-20T16:23:48.616Z,78.19
2017-11-20T16:26:17.021Z,77.49
2017-11-20T16:28:46.197Z,77.36
2017-11-20T16:31:14.581Z,77.69
2017-11-20T16:33:42.959Z,78.05
2017-11-20T16:36:11.392Z,78.70
2017-11-20T16:38:40.464Z,77.89
2017-11-20T16:41:08.863Z,77.36
2017-11-20T16:43:37.290Z,78.49
2017-11-20T16:46:05.669Z,79.02
2017-11-20T16:48:34.937Z,79.59
2017-11-20T16:51:03.409Z,78.98
2017-11-20T16:53:31.796Z,78.44
2017-11-20T16:56:00.198Z,78.77
2017-11-20T16:58:46.283Z,77.73
2017-11-20T17:01:14.660Z,78.01
2017-11-20T17:03:43.047Z,77.50
2017-11-20T17:06:12.379Z,78.29
2017-11-20T17:08:40.781Z,77.75
2017-11-20T17:11:09.926Z,77.27
2017-11-20T17:13:38.346Z,78.94
2017-11-20T17:16:07.207Z,78.44
2017-11-20T17:18:35.604Z,78.15
2017-11-20T17:21:04.025Z,78.83
2017-11-20T17:23:32.401Z,78.96
2017-11-20T17:26:01.574Z,78.02
2017-11-20T17:28:30.078Z,77.71
2017-11-20T17:30:58.470Z,77.41
2017-11-20T17:33:27.640Z,77.89
2017-11-20T17:35:56.073Z,78.53
2017-11-20T17:38:24.499Z,78.54
2017-11-20T17:40:53.674Z,78.28
2017-11-20T17:43:22.104Z,78.62
2017-11-20T17:45:51.278Z,78.23
2017-11-20T17:48:19.695Z,78.33
2017-11-20T17:50:48.493Z,78.51
2017-11-20T17:53:16.900Z,77.42
2017-11-20T17:55:46.817Z,78.00
2017-11-20T17:58:15.519Z,77.89
2017-11-20T18:00:43.915Z,78.06
2017-11-20T18:03:12.881Z,77.38
2017-11-20T18:05:41.322Z,77.34
2017-11-20T18:08:09.716Z,77.22
2017-11-20T18:10:38.098Z,76.74
2017-11-20T18:13:07.469Z,76.83
2017-11-20T18:15:36.642Z,76.54
2017-11-20T18:18:05.092Z,77.17
2017-11-20T18:20:34.013Z,76.91
2017-11-20T18:23:02.741Z,76.90
2017-11-20T18:25:31.141Z,76.65
2017-11-20T18:27:59.573Z,77.70
2017-11-20T18:30:27.972Z,77.15
2017-11-20T18:32:57.188Z,77.74
2017-11-20T18:35:25.678Z,77.96
2017-11-20T18:37:54.080Z,78.04
2017-11-20T18:40:22.473Z,78.10
2017-11-20T18:42:51.027Z,77.79
2017-11-20T18:45:19.486Z,78.55
2017-11-20T18:47:47.876Z,78.55
2017-11-20T18:50:16.331Z,77.81
2017-11-20T18:52:45.554Z,77.71
2017-11-20T18:55:13.970Z,77.51
2017-11-20T18:57:42.469Z,77.69
2017-11-20T19:00:28.443Z,78.11
2017-11-20T19:03:10.347Z,78.01
2017-11-20T19:05:56.528Z,78.06
2017-11-20T19:11:30.463Z,77.25
2017-11-20T19:13:59.044Z,77.22
2017-11-20T19:16:27.425Z,77.41
2017-11-20T19:18:55.827Z,77.21
2017-11-20T19:21:25.029Z,77.95
2017-11-20T19:23:53.429Z,78.53
2017-11-20T19:26:21.834Z,78.95
2017-11-20T19:28:50.621Z,78.74
2017-11-20T19:31:19.689Z,79.47
2017-11-20T19:33:48.870Z,78.24
2017-11-20T19:36:17.408Z,78.75
2017-11-20T19:38:46.734Z,78.45
2017-11-20T19:41:15.118Z,77.13
2017-11-20T19:43:43.560Z,77.34
2017-11-20T19:46:11.951Z,77.61
2017-11-20T19:48:40.596Z,77.81
2017-11-20T19:51:10.716Z,78.05
2017-11-20T19:53:39.865Z,77.34
2017-11-20T19:56:08.272Z,77.80
2017-11-20T19:58:37.139Z,76.83
2017-11-20T20:01:05.542Z,76.28
2017-11-20T20:03:33.920Z,75.71
2017-11-20T20:06:02.362Z,76.71
2017-11-20T20:08:30.776Z,76.38
2017-11-20T20:10:59.927Z,76.33
2017-11-20T20:13:46.122Z,76.30
2017-11-20T20:16:21.857Z,77.11
2017-11-20T20:18:51.056Z,77.27
2017-11-20T20:21:20.258Z,77.23
2017-11-20T20:23:49.781Z,76.97
2017-11-20T20:26:18.212Z,77.54
2017-11-20T20:28:46.609Z,78.04
2017-11-20T20:31:15.761Z,77.23
2017-11-20T20:33:44.265Z,78.17
2017-11-20T20:36:12.658Z,77.85
2017-11-20T20:38:41.072Z,78.15
2017-11-20T20:41:09.535Z,78.39
2017-11-20T20:43:38.076Z,78.49
2017-11-20T20:46:06.478Z,78.26
2017-11-20T20:48:34.906Z,78.32
2017-11-20T20:51:03.317Z,78.71
2017-11-20T20:53:31.709Z,78.83
2017-11-20T20:56:00.615Z,78.83
2017-11-20T20:58:29.038Z,79.01
2017-11-20T21:00:57.442Z,78.93
2017-11-20T21:03:25.907Z,78.41
2017-11-20T21:05:54.517Z,79.29
2017-11-20T21:08:22.921Z,79.30
2017-11-20T21:10:56.914Z,79.49
2017-11-20T21:13:26.117Z,79.04
2017-11-20T21:15:54.512Z,78.20
2017-11-20T21:18:23.588Z,77.80
2017-11-20T21:20:52.878Z,78.24
2017-11-20T21:23:21.296Z,78.22
2017-11-20T21:25:49.733Z,80.15
2017-11-20T21:28:18.189Z,79.92
2017-11-20T21:30:46.587Z,79.71
2017-11-20T21:33:15.792Z,79.46
2017-11-20T21:35:44.218Z,78.66
2017-11-20T21:38:13.361Z,77.78
2017-11-20T21:40:42.510Z,77.58
2017-11-20T21:43:10.899Z,76.82
2017-11-20T21:45:39.292Z,76.57
2017-11-20T21:48:07.720Z,76.54
2017-11-20T21:50:36.114Z,76.64
2017-11-20T21:53:04.515Z,77.61
2017-11-20T21:55:32.933Z,77.62
2017-11-20T21:58:01.308Z,77.43
2017-11-20T22:00:30.535Z,77.70
2017-11-20T22:02:59.135Z,78.37
2017-11-20T22:05:27.518Z,78.32
2017-11-20T22:07:56.325Z,78.16
2017-11-20T22:10:25.532Z,77.15
2017-11-20T22:16:06.591Z,77.10
2017-11-20T22:18:34.999Z,77.18
2017-11-20T22:21:03.452Z,77.48
2017-11-20T22:23:32.300Z,76.82
2017-11-20T22:26:00.693Z,76.40
2017-11-20T22:28:29.881Z,77.86
2017-11-20T22:30:58.353Z,77.65
2017-11-20T22:33:26.746Z,77.80
2017-11-20T22:35:55.368Z,78.48
2017-11-20T22:38:23.785Z,79.57
2017-11-20T22:40:52.944Z,79.10
2017-11-20T22:43:21.341Z,78.95
2017-11-20T22:45:51.146Z,78.76
2017-11-20T22:48:19.661Z,80.23
2017-11-20T22:50:48.450Z,80.74
2017-11-20T22:53:17.651Z,80.31
2017-11-20T22:55:46.072Z,79.97
2017-11-20T22:58:14.494Z,80.43
2017-11-20T23:00:43.697Z,80.72
2017-11-20T23:03:13.678Z,80.56
2017-11-20T23:05:42.122Z,80.37
2017-11-20T23:08:10.650Z,80.14
2017-11-20T23:10:39.076Z,80.63
2017-11-20T23:13:07.756Z,80.00
2017-11-20T23:15:36.213Z,80.83
2017-11-20T23:18:05.757Z,81.27
2017-11-20T23:20:34.153Z,82.23
2017-11-20T23:23:02.578Z,82.48
2017-11-20T23:25:31.740Z,82.22
2017-11-20T23:28:00.117Z,81.64
2017-11-20T23:30:28.637Z,81.01
2017-11-20T23:32:57.035Z,81.56
2017-11-20T23:35:25.442Z,82.04
2017-11-20T23:37:53.881Z,82.00
2017-11-20T23:40:22.275Z,83.54
2017-11-20T23:42:50.660Z,83.08
2017-11-20T23:45:19.862Z,81.76
2017-11-20T23:47:48.236Z,81.68
2017-11-20T23:50:16.664Z,81.66
2017-11-20T23:52:45.152Z,82.85
2017-11-20T23:55:13.727Z,81.36
2017-11-20T23:57:43.041Z,80.96
